createdAt,value
2018-06-29T00:00:49.816Z,0.00
2018-06-29T00:01:49.695Z,0.00
2018-06-29T00:02:49.690Z,0.00
2018-06-29T00:03:49.677Z,0.00
2018-06-29T00:04:49.666Z,0.00
2018-06-29T00:05:49.653Z,0.00
2018-06-29T00:06:49.664Z,0.00
2018-06-29T00:07:49.622Z,0.00
2018-06-29T00:08:49.615Z,0.00
2018-06-29T00:09:49.593Z,0.00
2018-06-29T00:10:49.590Z,0.00
2018-06-29T00:11:49.570Z,0.00
2018-06-29T00:12:49.561Z,0.00
2018-06-29T00:13:49.548Z,0.00
2018-06-29T00:14:49.539Z,0.00
2018-06-29T00:15:49.517Z,0.00
2018-06-29T00:16:49.511Z,0.00
2018-06-29T00:17:49.640Z,0.00
2018-06-29T00:18:49.481Z,0.00
2018-06-29T00:19:49.470Z,0.00
2018-06-29T00:20:49.470Z,0.00
2018-06-29T00:21:49.442Z,0.00
2018-06-29T00:22:49.431Z,0.00
2018-06-29T00:23:49.421Z,0.00
2018-06-29T00:24:49.423Z,0.00
2018-06-29T00:25:49.396Z,0.00
2018-06-29T00:26:49.389Z,0.00
2018-06-29T00:27:49.370Z,0.00
2018-06-29T00:28:49.360Z,0.00
2018-06-29T00:29:49.345Z,0.00
2018-06-29T00:30:49.327Z,0.00
2018-06-29T00:31:49.321Z,0.00
2018-06-29T00:32:49.310Z,0.00
2018-06-29T00:33:49.297Z,0.00
2018-06-29T00:34:49.278Z,0.00
2018-06-29T00:35:49.274Z,0.00
2018-06-29T00:36:49.257Z,0.00
2018-06-29T00:37:49.238Z,0.00
2018-06-29T00:38:49.234Z,0.00
2018-06-29T00:39:49.216Z,0.00
2018-06-29T00:40:49.208Z,0.00
2018-06-29T00:41:49.190Z,0.00
2018-06-29T00:42:49.180Z,0.00
2018-06-29T00:43:49.177Z,0.00
2018-06-29T00:44:49.149Z,0.00
2018-06-29T00:45:49.147Z,0.00
2018-06-29T00:46:49.132Z,0.00
2018-06-29T00:47:49.124Z,0.00
2018-06-29T00:48:49.104Z,0.00
2018-06-29T00:49:49.084Z,0.00
2018-06-29T00:50:49.090Z,0.00
2018-06-29T00:51:49.065Z,0.00
2018-06-29T00:52:49.045Z,0.00
2018-06-29T00:53:49.048Z,0.00
2018-06-29T00:54:49.025Z,0.00
2018-06-29T00:55:49.016Z,0.00
2018-06-29T00:56:49.017Z,0.00
2018-06-29T00:57:48.992Z,0.00
2018-06-29T00:58:49.010Z,0.00
2018-06-29T00:59:48.959Z,0.00
2018-06-29T01:00:48.949Z,0.00
2018-06-29T01:01:48.928Z,0.00
2018-06-29T01:02:48.920Z,0.00
2018-06-29T01:03:48.909Z,0.00
2018-06-29T01:04:48.903Z,0.00
2018-06-29T01:05:48.883Z,0.00
2018-06-29T01:06:48.870Z,0.00
2018-06-29T01:07:48.860Z,0.00
2018-06-29T01:08:48.856Z,0.00
2018-06-29T01:09:48.826Z,0.00
2018-06-29T01:10:48.819Z,0.00
2018-06-29T01:11:48.806Z,0.00
2018-06-29T01:12:48.787Z,0.00
2018-06-29T01:13:48.773Z,0.00
2018-06-29T01:14:48.762Z,0.00
2018-06-29T01:15:48.749Z,0.00
2018-06-29T01:16:48.739Z,0.00
2018-06-29T01:17:48.729Z,0.00
2018-06-29T01:18:48.708Z,0.00
2018-06-29T01:19:48.700Z,0.00
2018-06-29T01:20:48.685Z,0.00
2018-06-29T01:21:48.673Z,0.00
2018-06-29T01:22:48.657Z,0.00
2018-06-29T01:23:48.662Z,0.00
2018-06-29T01:24:48.640Z,0.00
2018-06-29T01:25:48.616Z,0.00
2018-06-29T01:26:48.619Z,0.00
2018-06-29T01:27:48.588Z,0.00
2018-06-29T01:28:48.585Z,0.00
2018-06-29T01:29:48.560Z,0.00
2018-06-29T01:30:48.582Z,0.00
2018-06-29T01:31:48.538Z,0.00
2018-06-29T01:32:48.522Z,0.00
2018-06-29T01:33:48.509Z,0.00
2018-06-29T01:34:48.498Z,0.00
2018-06-29T01:35:48.488Z,0.00
2018-06-29T01:36:48.476Z,0.00
2018-06-29T01:37:48.460Z,0.00
2018-06-29T01:38:48.461Z,0.00
2018-06-29T01:39:48.435Z,0.00
2018-06-29T01:40:48.419Z,0.00
2018-06-29T01:41:48.404Z,0.00
2018-06-29T01:42:48.388Z,0.00
2018-06-29T01:43:48.384Z,0.00
2018-06-29T01:44:48.372Z,0.00
2018-06-29T01:45:48.389Z,0.00
2018-06-29T01:46:48.340Z,0.00
2018-06-29T01:47:48.328Z,0.00
2018-06-29T01:48:48.321Z,0.00
2018-06-29T01:49:48.306Z,0.00
2018-06-29T01:50:48.279Z,0.00
2018-06-29T01:51:48.274Z,0.00
2018-06-29T01:52:48.260Z,0.00
2018-06-29T01:53:48.253Z,0.00
2018-06-29T01:54:48.233Z,0.00
2018-06-29T01:55:48.220Z,0.00
2018-06-29T01:56:48.204Z,0.00
2018-06-29T01:57:48.197Z,0.00
2018-06-29T01:58:48.179Z,0.00
2018-06-29T01:59:48.170Z,0.00
2018-06-29T02:00:48.158Z,0.00
2018-06-29T02:01:48.132Z,0.00
2018-06-29T02:02:48.127Z,0.00
2018-06-29T02:03:48.115Z,0.00
2018-06-29T02:04:48.111Z,0.00
2018-06-29T02:05:48.089Z,0.00
2018-06-29T02:06:48.073Z,0.00
2018-06-29T02:07:48.056Z,0.00
2018-06-29T02:08:48.054Z,0.00
2018-06-29T02:09:48.035Z,0.00
2018-06-29T02:10:48.016Z,0.00
2018-06-29T02:11:48.005Z,0.00
2018-06-29T02:12:47.987Z,0.00
2018-06-29T02:13:47.993Z,0.00
2018-06-29T02:14:47.961Z,0.00
2018-06-29T02:15:47.951Z,0.00
2018-06-29T02:16:47.936Z,0.00
2018-06-29T02:17:47.917Z,0.00
2018-06-29T02:18:47.927Z,0.00
2018-06-29T02:19:47.915Z,0.00
2018-06-29T02:20:47.884Z,0.00
2018-06-29T02:21:47.866Z,0.00
2018-06-29T02:22:47.852Z,0.00
2018-06-29T02:23:47.844Z,0.00
2018-06-29T02:24:47.832Z,0.00
2018-06-29T02:25:47.814Z,0.00
2018-06-29T02:26:47.797Z,0.00
2018-06-29T02:27:47.783Z,4.00
2018-06-29T02:28:47.828Z,4.00
2018-06-29T02:29:47.763Z,4.00
2018-06-29T02:30:47.852Z,4.00
2018-06-29T02:31:47.729Z,4.00
2018-06-29T02:32:47.716Z,4.00
2018-06-29T02:33:47.703Z,4.00
2018-06-29T02:34:47.698Z,4.00
2018-06-29T02:35:47.678Z,4.00
2018-06-29T02:36:47.664Z,8.00
2018-06-29T02:37:47.645Z,8.00
2018-06-29T02:38:47.632Z,8.00
2018-06-29T02:39:47.620Z,8.00
2018-06-29T02:40:47.612Z,12.00
2018-06-29T02:41:47.593Z,12.00
2018-06-29T02:42:47.577Z,12.00
2018-06-29T02:43:47.570Z,16.00
2018-06-29T02:44:47.561Z,16.00
2018-06-29T02:45:47.537Z,16.00
2018-06-29T02:46:47.534Z,20.00
2018-06-29T02:47:47.508Z,20.00
2018-06-29T02:48:47.501Z,24.00
2018-06-29T02:49:47.494Z,32.00
2018-06-29T02:50:47.468Z,32.00
2018-06-29T02:51:47.458Z,36.00
2018-06-29T02:52:47.455Z,44.00
2018-06-29T02:53:47.428Z,44.00
2018-06-29T02:54:47.420Z,52.00
2018-06-29T02:55:47.406Z,56.00
2018-06-29T02:56:47.388Z,64.00
2018-06-29T02:57:47.374Z,68.00
2018-06-29T02:58:47.354Z,80.00
2018-06-29T02:59:47.345Z,88.00
2018-06-29T03:00:47.369Z,92.00
2018-06-29T03:01:47.320Z,104.00
2018-06-29T03:02:47.308Z,112.00
2018-06-29T03:03:47.357Z,120.00
2018-06-29T03:04:47.275Z,136.00
2018-06-29T03:05:47.265Z,144.00
2018-06-29T03:06:47.244Z,152.00
2018-06-29T03:07:47.236Z,164.00
2018-06-29T03:08:47.233Z,172.00
2018-06-29T03:09:47.220Z,192.00
2018-06-29T03:10:47.190Z,208.00
2018-06-29T03:11:47.181Z,220.00
2018-06-29T03:12:47.168Z,228.00
2018-06-29T03:13:47.151Z,256.00
2018-06-29T03:14:47.133Z,280.00
2018-06-29T03:15:47.123Z,296.00
2018-06-29T03:16:47.119Z,320.00
2018-06-29T03:17:47.142Z,336.00
2018-06-29T03:18:47.096Z,352.00
2018-06-29T03:19:47.063Z,380.00
2018-06-29T03:20:47.054Z,408.00
2018-06-29T03:21:47.039Z,412.00
2018-06-29T03:22:47.028Z,448.00
2018-06-29T03:23:47.006Z,472.00
2018-06-29T03:24:47.000Z,500.00
2018-06-29T03:25:46.980Z,524.00
2018-06-29T03:26:46.973Z,540.00
2018-06-29T03:27:46.954Z,568.00
2018-06-29T03:28:46.947Z,608.00
2018-06-29T03:29:46.923Z,624.00
2018-06-29T03:30:46.918Z,656.00
2018-06-29T03:31:46.894Z,668.00
2018-06-29T03:32:46.888Z,688.00
2018-06-29T03:33:46.910Z,736.00
2018-06-29T03:34:46.881Z,764.00
2018-06-29T03:35:46.845Z,764.00
2018-06-29T03:36:46.828Z,824.00
2018-06-29T03:37:46.816Z,844.00
2018-06-29T03:38:46.806Z,856.00
2018-06-29T03:39:46.790Z,888.00
2018-06-29T03:40:46.799Z,928.00
2018-06-29T03:41:46.760Z,956.00
2018-06-29T03:42:46.754Z,992.00
2018-06-29T03:43:46.733Z,1004.00
2018-06-29T03:44:46.721Z,1032.00
2018-06-29T03:45:46.707Z,1080.00
2018-06-29T03:46:46.691Z,1108.00
2018-06-29T03:47:46.687Z,1124.00
2018-06-29T03:48:46.668Z,1168.00
2018-06-29T03:49:46.645Z,1200.00
2018-06-29T03:50:46.637Z,1228.00
2018-06-29T03:51:46.616Z,1240.00
2018-06-29T03:52:46.610Z,1284.00
2018-06-29T03:53:46.593Z,1288.00
2018-06-29T03:54:46.574Z,1324.00
2018-06-29T03:55:46.558Z,1336.00
2018-06-29T03:56:46.540Z,1368.00
2018-06-29T03:57:46.542Z,1412.00
2018-06-29T03:58:46.519Z,1432.00
2018-06-29T03:59:46.501Z,1484.00
2018-06-29T04:00:46.504Z,1480.00
2018-06-29T04:01:46.473Z,1520.00
2018-06-29T04:02:46.464Z,1556.00
2018-06-29T04:03:46.457Z,1592.00
2018-06-29T04:04:46.430Z,1592.00
2018-06-29T04:05:46.417Z,1624.00
2018-06-29T04:06:46.406Z,1668.00
2018-06-29T04:07:46.396Z,1680.00
2018-06-29T04:08:46.375Z,1704.00
2018-06-29T04:09:46.360Z,1748.00
2018-06-29T04:10:46.358Z,1748.00
2018-06-29T04:11:46.336Z,1772.00
2018-06-29T04:12:46.314Z,1800.00
2018-06-29T04:13:46.303Z,1836.00
2018-06-29T04:14:46.311Z,1852.00
2018-06-29T04:15:46.274Z,1888.00
2018-06-29T04:16:46.273Z,1884.00
2018-06-29T04:17:46.260Z,1928.00
2018-06-29T04:18:46.231Z,1960.00
2018-06-29T04:19:46.220Z,1984.00
2018-06-29T04:20:46.203Z,2008.00
2018-06-29T04:21:46.194Z,2020.00
2018-06-29T04:22:46.176Z,2032.00
2018-06-29T04:23:46.158Z,2068.00
2018-06-29T04:24:46.154Z,2076.00
2018-06-29T04:25:46.136Z,2104.00
2018-06-29T04:26:46.118Z,2120.00
2018-06-29T04:27:46.103Z,2132.00
2018-06-29T04:28:46.137Z,2160.00
2018-06-29T04:29:46.098Z,2192.00
2018-06-29T04:30:46.060Z,2216.00
2018-06-29T04:31:46.065Z,2220.00
2018-06-29T04:32:46.077Z,2228.00
2018-06-29T04:33:46.016Z,2236.00
2018-06-29T04:34:46.005Z,2264.00
2018-06-29T04:35:45.992Z,2268.00
2018-06-29T04:36:45.979Z,2320.00
2018-06-29T04:37:45.963Z,2272.00
2018-06-29T04:38:45.943Z,2324.00
2018-06-29T04:39:45.940Z,2360.00
2018-06-29T04:40:45.928Z,2388.00
2018-06-29T04:41:45.899Z,2404.00
2018-06-29T04:42:45.942Z,2416.00
2018-06-29T04:43:45.877Z,2436.00
2018-06-29T04:44:45.867Z,2464.00
2018-06-29T04:45:45.855Z,2476.00
2018-06-29T04:46:45.833Z,2456.00
2018-06-29T04:47:45.822Z,2504.00
2018-06-29T04:48:45.808Z,2528.00
2018-06-29T04:49:45.794Z,2516.00
2018-06-29T04:50:45.780Z,2544.00
2018-06-29T04:51:45.770Z,2516.00
2018-06-29T04:52:45.786Z,2560.00
2018-06-29T04:53:45.747Z,2584.00
2018-06-29T04:54:45.725Z,2608.00
2018-06-29T04:55:45.715Z,2604.00
2018-06-29T04:56:45.690Z,2624.00
2018-06-29T04:57:45.684Z,2576.00
2018-06-29T04:58:45.668Z,2652.00
2018-06-29T04:59:45.656Z,2676.00
2018-06-29T05:00:45.647Z,2704.00
2018-06-29T05:01:45.641Z,2716.00
2018-06-29T05:02:45.650Z,2728.00
2018-06-29T05:03:45.608Z,2744.00
2018-06-29T05:04:45.595Z,2760.00
2018-06-29T05:05:45.576Z,2780.00
2018-06-29T05:06:45.583Z,2776.00
2018-06-29T05:07:45.565Z,2776.00
2018-06-29T05:08:45.544Z,2824.00
2018-06-29T05:09:45.520Z,2828.00
2018-06-29T05:10:45.548Z,2808.00
2018-06-29T05:11:45.505Z,2812.00
2018-06-29T05:12:45.525Z,2904.00
2018-06-29T05:13:45.467Z,2860.00
2018-06-29T05:14:45.496Z,2884.00
2018-06-29T05:15:45.466Z,2868.00
2018-06-29T05:16:45.459Z,2928.00
2018-06-29T05:17:45.411Z,2952.00
2018-06-29T05:18:45.454Z,2976.00
2018-06-29T05:19:45.387Z,2964.00
2018-06-29T05:20:45.447Z,2972.00
2018-06-29T05:21:45.358Z,2996.00
2018-06-29T05:22:45.338Z,3024.00
2018-06-29T05:23:45.373Z,3024.00
2018-06-29T05:24:45.325Z,3028.00
2018-06-29T05:25:45.327Z,3036.00
2018-06-29T05:26:45.294Z,2992.00
2018-06-29T05:27:45.301Z,3044.00
2018-06-29T05:28:45.336Z,3136.00
2018-06-29T05:29:45.239Z,3160.00
2018-06-29T05:30:45.239Z,3164.00
2018-06-29T05:31:45.244Z,3164.00
2018-06-29T05:32:45.229Z,3200.00
2018-06-29T05:33:45.198Z,3204.00
2018-06-29T05:34:45.184Z,3212.00
2018-06-29T05:35:45.165Z,3196.00
2018-06-29T05:36:45.175Z,3252.00
2018-06-29T05:37:45.159Z,3268.00
2018-06-29T05:38:45.121Z,3272.00
2018-06-29T05:39:45.141Z,3252.00
2018-06-29T05:40:45.109Z,3264.00
2018-06-29T05:41:45.191Z,3296.00
2018-06-29T05:42:45.159Z,3260.00
2018-06-29T05:43:45.094Z,3312.00
2018-06-29T05:44:45.070Z,3296.00
2018-06-29T05:45:45.056Z,3360.00
2018-06-29T05:46:45.001Z,3388.00
2018-06-29T05:47:45.074Z,3368.00
2018-06-29T05:48:44.993Z,3388.00
2018-06-29T05:49:44.987Z,3440.00
2018-06-29T05:50:44.985Z,3436.00
2018-06-29T05:51:44.966Z,3452.00
2018-06-29T05:52:44.940Z,3468.00
2018-06-29T05:53:44.975Z,3468.00
2018-06-29T05:54:44.943Z,3492.00
2018-06-29T05:55:44.971Z,3504.00
2018-06-29T05:56:44.986Z,3488.00
2018-06-29T05:57:44.879Z,3544.00
2018-06-29T05:58:44.881Z,3548.00
2018-06-29T05:59:44.886Z,3532.00
2018-06-29T06:00:44.812Z,3568.00
2018-06-29T06:01:44.812Z,3576.00
2018-06-29T06:02:44.829Z,3600.00
2018-06-29T06:03:44.782Z,3624.00
2018-06-29T06:04:44.867Z,3628.00
2018-06-29T06:05:44.772Z,3672.00
2018-06-29T06:06:44.754Z,3728.00
2018-06-29T06:07:44.757Z,3824.00
2018-06-29T06:08:44.756Z,3992.00
2018-06-29T06:09:44.734Z,4216.00
2018-06-29T06:10:44.688Z,4516.00
2018-06-29T06:11:44.694Z,4852.00
2018-06-29T06:12:44.818Z,5256.00
2018-06-29T06:13:44.676Z,6344.00
2018-06-29T06:14:44.636Z,28928.00
2018-06-29T06:15:44.634Z,55712.00
2018-06-29T06:16:44.633Z,52544.00
2018-06-29T06:17:44.664Z,25984.00
2018-06-29T06:18:44.578Z,9340.00
2018-06-29T06:19:44.575Z,8616.00
2018-06-29T06:20:44.571Z,7784.00
2018-06-29T06:21:44.574Z,7480.00
2018-06-29T06:22:44.569Z,7444.00
2018-06-29T06:23:44.575Z,7452.00
2018-06-29T06:24:44.534Z,7564.00
2018-06-29T06:25:44.541Z,7704.00
2018-06-29T06:26:44.513Z,7892.00
2018-06-29T06:27:44.485Z,8036.00
2018-06-29T06:28:44.484Z,8168.00
2018-06-29T06:29:44.471Z,8316.00
2018-06-29T06:30:44.433Z,8504.00
2018-06-29T06:31:44.434Z,8868.00
2018-06-29T06:32:44.429Z,10016.00
2018-06-29T06:33:44.600Z,11540.00
2018-06-29T06:34:44.382Z,12100.00
2018-06-29T06:35:44.396Z,13120.00
2018-06-29T06:36:44.405Z,13756.00
2018-06-29T06:37:44.477Z,16512.00
2018-06-29T06:38:44.327Z,18432.00
2018-06-29T06:39:44.335Z,19488.00
2018-06-29T06:40:44.339Z,20480.00
2018-06-29T06:41:44.374Z,20928.00
2018-06-29T06:42:44.308Z,21248.00
2018-06-29T06:43:44.271Z,21888.00
2018-06-29T06:44:44.268Z,21696.00
2018-06-29T06:45:44.270Z,19840.00
2018-06-29T06:46:44.295Z,19072.00
2018-06-29T06:47:44.256Z,23008.00
2018-06-29T06:48:44.274Z,20640.00
2018-06-29T06:49:44.226Z,21760.00
2018-06-29T06:50:44.237Z,19584.00
2018-06-29T06:51:44.241Z,18560.00
2018-06-29T06:52:44.203Z,18880.00
2018-06-29T06:53:44.263Z,19616.00
2018-06-29T06:54:44.183Z,24480.00
2018-06-29T06:55:44.191Z,32800.00
2018-06-29T06:56:44.148Z,24480.00
2018-06-29T06:57:44.136Z,20608.00
2018-06-29T06:58:44.155Z,20480.00
2018-06-29T06:59:44.216Z,20000.00
2018-06-29T07:00:44.165Z,20512.00
2018-06-29T07:01:44.136Z,18656.00
2018-06-29T07:02:44.116Z,18560.00
2018-06-29T07:03:44.113Z,19264.00
2018-06-29T07:04:44.119Z,17344.00
2018-06-29T07:05:44.088Z,22688.00
2018-06-29T07:06:44.083Z,15388.00
2018-06-29T07:07:44.071Z,15440.00
2018-06-29T07:08:44.089Z,14924.00
2018-06-29T07:09:44.050Z,14540.00
2018-06-29T07:10:44.051Z,14516.00
2018-06-29T07:11:44.068Z,14692.00
2018-06-29T07:12:44.091Z,14448.00
2018-06-29T07:13:44.062Z,14428.00
2018-06-29T07:14:44.035Z,14360.00
2018-06-29T07:15:44.017Z,14084.00
2018-06-29T07:16:44.048Z,14332.00
2018-06-29T07:17:44.027Z,14492.00
2018-06-29T07:18:43.996Z,15264.00
2018-06-29T07:19:44.035Z,15460.00
2018-06-29T07:20:44.018Z,15820.00
2018-06-29T07:21:43.996Z,15900.00
2018-06-29T07:22:43.994Z,16144.00
2018-06-29T07:23:43.985Z,16480.00
2018-06-29T07:24:43.987Z,16736.00
2018-06-29T07:25:43.955Z,16928.00
2018-06-29T07:26:44.073Z,17216.00
2018-06-29T07:27:43.979Z,17376.00
2018-06-29T07:28:43.943Z,17696.00
2018-06-29T07:29:43.933Z,17824.00
2018-06-29T07:30:43.925Z,17696.00
2018-06-29T07:31:43.944Z,18176.00
2018-06-29T07:32:43.965Z,18528.00
2018-06-29T07:33:43.941Z,18752.00
2018-06-29T07:34:43.911Z,19040.00
2018-06-29T07:35:43.928Z,19104.00
2018-06-29T07:36:43.898Z,19840.00
2018-06-29T07:37:43.999Z,20992.00
2018-06-29T07:38:43.934Z,28768.00
2018-06-29T07:39:43.911Z,58016.00
2018-06-29T07:40:43.906Z,76896.00
2018-06-29T07:41:43.926Z,76096.00
2018-06-29T07:42:43.898Z,77696.00
2018-06-29T07:43:43.868Z,78880.00
2018-06-29T07:44:43.865Z,76736.00
2018-06-29T07:45:43.853Z,74720.00
2018-06-29T07:46:43.880Z,75936.00
2018-06-29T07:47:43.859Z,75712.00
2018-06-29T07:48:43.847Z,77248.00
2018-06-29T07:49:43.926Z,76704.00
2018-06-29T07:50:43.844Z,76672.00
2018-06-29T07:51:43.851Z,75072.00
2018-06-29T07:52:43.847Z,76576.00
2018-06-29T07:53:43.849Z,77248.00
2018-06-29T07:54:43.860Z,79584.00
2018-06-29T07:55:43.850Z,79456.00
2018-06-29T07:56:43.823Z,76640.00
2018-06-29T07:57:43.822Z,75328.00
2018-06-29T07:58:44.617Z,74880.00
2018-06-29T07:59:43.818Z,76832.00
2018-06-29T08:00:43.822Z,77952.00
2018-06-29T08:01:43.833Z,74880.00
2018-06-29T08:02:43.929Z,75456.00
2018-06-29T08:03:43.802Z,55104.00
2018-06-29T08:04:43.803Z,97376.00
2018-06-29T08:05:43.810Z,53088.00
2018-06-29T08:06:43.794Z,47456.00
2018-06-29T08:07:43.807Z,41696.00
2018-06-29T08:08:43.914Z,73280.00
2018-06-29T08:09:43.924Z,73184.00
2018-06-29T08:10:43.886Z,73344.00
2018-06-29T08:11:43.822Z,74528.00
2018-06-29T08:12:43.783Z,74528.00
2018-06-29T08:13:43.783Z,71552.00
2018-06-29T08:14:43.798Z,72256.00
2018-06-29T08:15:43.803Z,72672.00
2018-06-29T08:16:43.827Z,70272.00
2018-06-29T08:17:43.783Z,69728.00
2018-06-29T08:18:43.828Z,71456.00
2018-06-29T08:19:43.842Z,69792.00
2018-06-29T08:20:43.803Z,68800.00
2018-06-29T08:21:43.788Z,70336.00
2018-06-29T08:22:43.762Z,71840.00
2018-06-29T08:23:43.792Z,65696.00
2018-06-29T08:24:43.794Z,42016.00
2018-06-29T08:25:43.766Z,18272.00
2018-06-29T08:26:43.769Z,11044.00
2018-06-29T08:27:43.782Z,9048.00
2018-06-29T08:28:43.744Z,7624.00
2018-06-29T08:29:43.768Z,6856.00
2018-06-29T08:30:43.741Z,6456.00
2018-06-29T08:31:43.730Z,6156.00
2018-06-29T08:32:43.769Z,5912.00
2018-06-29T08:33:43.729Z,5688.00
2018-06-29T08:34:43.755Z,5428.00
2018-06-29T08:35:43.731Z,5232.00
2018-06-29T08:36:43.735Z,5048.00
2018-06-29T08:37:43.767Z,5000.00
2018-06-29T08:38:43.747Z,4948.00
2018-06-29T08:39:43.704Z,4912.00
2018-06-29T08:40:43.712Z,4896.00
2018-06-29T08:41:43.707Z,4908.00
2018-06-29T08:42:43.724Z,4876.00
2018-06-29T08:43:43.686Z,4836.00
2018-06-29T08:44:43.745Z,4848.00
2018-06-29T08:45:43.688Z,4920.00
2018-06-29T08:46:43.727Z,4884.00
2018-06-29T08:47:43.665Z,4868.00
2018-06-29T08:48:43.662Z,4908.00
2018-06-29T08:49:43.725Z,4896.00
2018-06-29T08:50:43.658Z,4952.00
2018-06-29T08:51:43.643Z,4952.00
2018-06-29T08:52:43.719Z,4912.00
2018-06-29T08:53:43.635Z,4884.00
2018-06-29T08:54:43.609Z,4848.00
2018-06-29T08:55:43.661Z,4928.00
2018-06-29T08:56:43.681Z,4928.00
2018-06-29T08:57:43.620Z,4900.00
2018-06-29T08:58:43.577Z,4920.00
2018-06-29T08:59:43.568Z,4992.00
2018-06-29T09:00:43.565Z,4988.00
2018-06-29T09:01:43.547Z,4968.00
2018-06-29T09:02:43.554Z,4900.00
2018-06-29T09:03:43.552Z,4984.00
2018-06-29T09:04:43.542Z,4968.00
2018-06-29T09:05:43.573Z,4924.00
2018-06-29T09:06:43.532Z,4932.00
2018-06-29T09:07:43.557Z,4900.00
2018-06-29T09:08:43.489Z,4836.00
2018-06-29T09:09:43.480Z,4840.00
2018-06-29T09:10:43.506Z,4880.00
2018-06-29T09:11:43.485Z,4928.00
2018-06-29T09:12:43.459Z,4896.00
2018-06-29T09:13:43.454Z,4868.00
2018-06-29T09:14:43.495Z,4904.00
2018-06-29T09:15:43.494Z,4816.00
2018-06-29T09:16:43.437Z,4800.00
2018-06-29T09:17:43.455Z,4848.00
2018-06-29T09:18:43.414Z,4856.00
2018-06-29T09:19:43.417Z,4896.00
2018-06-29T09:20:43.389Z,4852.00
2018-06-29T09:21:43.386Z,4876.00
2018-06-29T09:22:43.385Z,4916.00
2018-06-29T09:23:43.384Z,4800.00
2018-06-29T09:24:43.380Z,4868.00
2018-06-29T09:25:43.384Z,4888.00
2018-06-29T09:26:43.349Z,4876.00
2018-06-29T09:27:43.347Z,4900.00
2018-06-29T09:28:43.333Z,4876.00
2018-06-29T09:29:43.347Z,4868.00
2018-06-29T09:30:43.353Z,4868.00
2018-06-29T09:31:43.339Z,4848.00
2018-06-29T09:32:43.389Z,4848.00
2018-06-29T09:33:43.415Z,4924.00
2018-06-29T09:34:43.281Z,4892.00
2018-06-29T09:35:43.275Z,4976.00
2018-06-29T09:36:43.320Z,4920.00
2018-06-29T09:37:43.281Z,4928.00
2018-06-29T09:38:43.263Z,4996.00
2018-06-29T09:39:43.244Z,5040.00
2018-06-29T09:40:43.246Z,5092.00
2018-06-29T09:41:43.213Z,5056.00
2018-06-29T09:42:43.216Z,5072.00
2018-06-29T09:43:43.228Z,5152.00
2018-06-29T09:44:43.202Z,5104.00
2018-06-29T09:45:43.181Z,5116.00
2018-06-29T09:46:43.179Z,5120.00
2018-06-29T09:47:43.205Z,5056.00
2018-06-29T09:48:43.164Z,5076.00
2018-06-29T09:49:43.152Z,5124.00
2018-06-29T09:50:43.147Z,5112.00
2018-06-29T09:51:43.148Z,5184.00
2018-06-29T09:52:43.134Z,5148.00
2018-06-29T09:53:43.110Z,5160.00
2018-06-29T09:54:43.182Z,5084.00
2018-06-29T09:55:43.192Z,4968.00
2018-06-29T09:56:43.194Z,4968.00
2018-06-29T09:57:43.116Z,4888.00
2018-06-29T09:58:43.080Z,4836.00
2018-06-29T09:59:43.094Z,4828.00
2018-06-29T10:00:43.098Z,4832.00
2018-06-29T10:01:43.077Z,4756.00
2018-06-29T10:02:43.051Z,4816.00
2018-06-29T10:03:43.058Z,4860.00
2018-06-29T10:04:43.025Z,4876.00
2018-06-29T10:05:43.033Z,4864.00
2018-06-29T10:06:43.027Z,4856.00
2018-06-29T10:07:43.074Z,4936.00
2018-06-29T10:08:43.013Z,4884.00
2018-06-29T10:09:43.001Z,4888.00
2018-06-29T10:10:43.033Z,4880.00
2018-06-29T10:11:43.037Z,4840.00
2018-06-29T10:12:42.971Z,4872.00
2018-06-29T10:13:42.955Z,4836.00
2018-06-29T10:14:42.953Z,4816.00
2018-06-29T10:15:42.948Z,4832.00
2018-06-29T10:16:42.952Z,4788.00
2018-06-29T10:17:42.922Z,4756.00
2018-06-29T10:18:43.046Z,4796.00
2018-06-29T10:19:42.988Z,4756.00
2018-06-29T10:20:42.923Z,4864.00
2018-06-29T10:21:42.886Z,4888.00
2018-06-29T10:22:42.899Z,4920.00
2018-06-29T10:23:42.873Z,4840.00
2018-06-29T10:24:42.915Z,4792.00
2018-06-29T10:25:42.858Z,4784.00
2018-06-29T10:26:42.858Z,4772.00
2018-06-29T10:27:42.881Z,4692.00
2018-06-29T10:28:42.844Z,4668.00
2018-06-29T10:29:42.831Z,4680.00
2018-06-29T10:30:42.839Z,4676.00
2018-06-29T10:31:42.833Z,4668.00
2018-06-29T10:32:42.800Z,4716.00
2018-06-29T10:33:42.808Z,4716.00
2018-06-29T10:34:42.844Z,4708.00
2018-06-29T10:35:42.835Z,4752.00
2018-06-29T10:36:42.806Z,4756.00
2018-06-29T10:37:42.828Z,4792.00
2018-06-29T10:38:42.837Z,4764.00
2018-06-29T10:39:42.768Z,4820.00
2018-06-29T10:40:42.787Z,4712.00
2018-06-29T10:41:42.768Z,4700.00
2018-06-29T10:42:42.782Z,4696.00
2018-06-29T10:43:42.711Z,4708.00
2018-06-29T10:44:42.777Z,4668.00
2018-06-29T10:45:42.763Z,4632.00
2018-06-29T10:46:42.704Z,4644.00
2018-06-29T10:47:42.694Z,4552.00
2018-06-29T10:48:42.683Z,4524.00
2018-06-29T10:49:42.707Z,4540.00
2018-06-29T10:50:42.679Z,4508.00
2018-06-29T10:51:42.646Z,4460.00
2018-06-29T10:52:42.660Z,4448.00
2018-06-29T10:53:42.630Z,4436.00
2018-06-29T10:54:42.639Z,4552.00
2018-06-29T10:55:42.623Z,4524.00
2018-06-29T10:56:42.611Z,4520.00
2018-06-29T10:57:42.624Z,4500.00
2018-06-29T10:58:42.662Z,4484.00
2018-06-29T10:59:42.652Z,4488.00
2018-06-29T11:00:42.588Z,4488.00
2018-06-29T11:01:42.589Z,4500.00
2018-06-29T11:02:42.620Z,4448.00
2018-06-29T11:03:42.572Z,4456.00
2018-06-29T11:04:42.565Z,4404.00
2018-06-29T11:05:42.593Z,4456.00
2018-06-29T11:06:42.554Z,4408.00
2018-06-29T11:07:42.558Z,4488.00
2018-06-29T11:08:42.519Z,4548.00
2018-06-29T11:09:42.510Z,4524.00
2018-06-29T11:10:42.532Z,4452.00
2018-06-29T11:11:42.543Z,4412.00
2018-06-29T11:12:42.504Z,4404.00
2018-06-29T11:13:42.524Z,4356.00
2018-06-29T11:14:42.467Z,4376.00
2018-06-29T11:15:42.517Z,4348.00
2018-06-29T11:16:42.566Z,4316.00
2018-06-29T11:17:42.488Z,4324.00
2018-06-29T11:18:42.485Z,4308.00
2018-06-29T11:19:42.435Z,4256.00
2018-06-29T11:20:42.436Z,4288.00
2018-06-29T11:21:42.455Z,4304.00
2018-06-29T11:22:42.454Z,4360.00
2018-06-29T11:23:42.406Z,4340.00
2018-06-29T11:24:42.517Z,4324.00
2018-06-29T11:25:42.497Z,4408.00
2018-06-29T11:26:42.427Z,4364.00
2018-06-29T11:27:42.388Z,4384.00
2018-06-29T11:28:42.370Z,4396.00
2018-06-29T11:29:42.359Z,4376.00
2018-06-29T11:30:42.397Z,4464.00
2018-06-29T11:31:42.375Z,4436.00
2018-06-29T11:32:42.393Z,4404.00
2018-06-29T11:33:42.330Z,4408.00
2018-06-29T11:34:42.334Z,4408.00
2018-06-29T11:35:42.354Z,4440.00
2018-06-29T11:36:42.381Z,4448.00
2018-06-29T11:37:42.300Z,4376.00
2018-06-29T11:38:42.313Z,4380.00
2018-06-29T11:39:42.281Z,4372.00
2018-06-29T11:40:42.274Z,4384.00
2018-06-29T11:41:42.281Z,4324.00
2018-06-29T11:42:42.330Z,4396.00
2018-06-29T11:43:42.289Z,4308.00
2018-06-29T11:44:42.253Z,4320.00
2018-06-29T11:45:42.255Z,4324.00
2018-06-29T11:46:42.240Z,4296.00
2018-06-29T11:47:42.216Z,4340.00
2018-06-29T11:48:42.277Z,4384.00
2018-06-29T11:49:42.214Z,4408.00
2018-06-29T11:50:42.241Z,4424.00
2018-06-29T11:51:42.214Z,4404.00
2018-06-29T11:52:42.187Z,4400.00
2018-06-29T11:53:42.184Z,4416.00
2018-06-29T11:54:42.187Z,4372.00
2018-06-29T11:55:42.241Z,4360.00
2018-06-29T11:56:42.154Z,4352.00
2018-06-29T11:57:42.146Z,4440.00
2018-06-29T11:58:42.143Z,4332.00
2018-06-29T11:59:42.133Z,4356.00
2018-06-29T12:00:42.155Z,4436.00
2018-06-29T12:01:42.122Z,4364.00
2018-06-29T12:02:42.133Z,4376.00
2018-06-29T12:03:42.108Z,4356.00
2018-06-29T12:04:42.139Z,4348.00
2018-06-29T12:05:42.080Z,4340.00
2018-06-29T12:06:42.077Z,4564.00
2018-06-29T12:07:42.071Z,4468.00
2018-06-29T12:08:42.094Z,4624.00
2018-06-29T12:09:42.057Z,4476.00
2018-06-29T12:10:42.061Z,4472.00
2018-06-29T12:11:42.042Z,4456.00
2018-06-29T12:12:42.034Z,4484.00
2018-06-29T12:13:42.033Z,4536.00
2018-06-29T12:14:42.026Z,4512.00
2018-06-29T12:15:42.010Z,4480.00
2018-06-29T12:16:42.011Z,4556.00
2018-06-29T12:17:42.001Z,4420.00
2018-06-29T12:18:42.000Z,4572.00
2018-06-29T12:19:41.978Z,4484.00